sensor_id;sensor_type;location;lat;lon;timestamp;temperature;humidity
42755;DHT22;28407;51.830;5.684;2023-12-20T00:00:25;8.60;92.40
42755;DHT22;28407;51.830;5.684;2023-12-20T00:02:25;8.50;92.40
42755;DHT22;28407;51.830;5.684;2023-12-20T00:04:26;8.50;92.40
42755;DHT22;28407;51.830;5.684;2023-12-20T00:06:27;8.50;92.40
42755;DHT22;28407;51.830;5.684;2023-12-20T00:08:27;8.50;92.40
42755;DHT22;28407;51.830;5.684;2023-12-20T00:10:28;8.50;92.50
42755;DHT22;28407;51.830;5.684;2023-12-20T00:12:28;8.40;92.40
42755;DHT22;28407;51.830;5.684;2023-12-20T00:14:29;8.40;92.40
42755;DHT22;28407;51.830;5.684;2023-12-20T00:16:29;8.50;92.40
42755;DHT22;28407;51.830;5.684;2023-12-20T00:18:32;8.40;92.40
42755;DHT22;28407;51.830;5.684;2023-12-20T00:20:32;8.40;92.40
42755;DHT22;28407;51.830;5.684;2023-12-20T00:22:33;8.40;92.40
42755;DHT22;28407;51.830;5.684;2023-12-20T00:24:33;8.40;92.40
42755;DHT22;28407;51.830;5.684;2023-12-20T00:26:34;8.50;92.40
42755;DHT22;28407;51.830;5.684;2023-12-20T00:28:34;8.50;92.30
42755;DHT22;28407;51.830;5.684;2023-12-20T00:30:35;8.50;92.30
42755;DHT22;28407;51.830;5.684;2023-12-20T00:32:36;8.40;92.30
42755;DHT22;28407;51.830;5.684;2023-12-20T00:34:37;8.40;92.30
42755;DHT22;28407;51.830;5.684;2023-12-20T00:36:37;8.50;92.30
42755;DHT22;28407;51.830;5.684;2023-12-20T00:38:38;8.40;92.30
42755;DHT22;28407;51.830;5.684;2023-12-20T00:40:38;8.40;92.30
42755;DHT22;28407;51.830;5.684;2023-12-20T00:42:39;8.40;92.30
42755;DHT22;28407;51.830;5.684;2023-12-20T00:44:40;8.50;92.30
42755;DHT22;28407;51.830;5.684;2023-12-20T00:46:40;8.40;92.30
42755;DHT22;28407;51.830;5.684;2023-12-20T00:48:43;8.40;92.30
42755;DHT22;28407;51.830;5.684;2023-12-20T00:50:47;8.40;92.30
42755;DHT22;28407;51.830;5.684;2023-12-20T00:52:48;8.40;92.30
42755;DHT22;28407;51.830;5.684;2023-12-20T00:54:49;8.40;92.30
42755;DHT22;28407;51.830;5.684;2023-12-20T00:56:49;8.40;92.30
42755;DHT22;28407;51.830;5.684;2023-12-20T00:58:50;8.40;92.20
42755;DHT22;28407;51.830;5.684;2023-12-20T01:00:50;8.40;92.20
42755;DHT22;28407;51.830;5.684;2023-12-20T01:02:51;8.30;92.20
42755;DHT22;28407;51.830;5.684;2023-12-20T01:04:52;8.30;92.20
42755;DHT22;28407;51.830;5.684;2023-12-20T01:06:52;8.40;92.20
42755;DHT22;28407;51.830;5.684;2023-12-20T01:08:53;8.30;92.20
42755;DHT22;28407;51.830;5.684;2023-12-20T01:10:54;8.30;92.20
42755;DHT22;28407;51.830;5.684;2023-12-20T01:12:54;8.30;92.20
42755;DHT22;28407;51.830;5.684;2023-12-20T01:14:58;8.30;92.20
42755;DHT22;28407;51.830;5.684;2023-12-20T01:16:59;8.20;92.20
42755;DHT22;28407;51.830;5.684;2023-12-20T01:18:59;8.20;92.20
42755;DHT22;28407;51.830;5.684;2023-12-20T01:21:03;8.20;92.20
42755;DHT22;28407;51.830;5.684;2023-12-20T01:23:04;8.20;92.20
42755;DHT22;28407;51.830;5.684;2023-12-20T01:25:04;8.10;92.20
42755;DHT22;28407;51.830;5.684;2023-12-20T01:27:05;8.10;92.20
42755;DHT22;28407;51.830;5.684;2023-12-20T01:29:05;8.20;92.20
42755;DHT22;28407;51.830;5.684;2023-12-20T01:31:06;8.10;92.20
42755;DHT22;28407;51.830;5.684;2023-12-20T01:33:07;8.10;92.20
42755;DHT22;28407;51.830;5.684;2023-12-20T01:35:08;8.10;92.20
42755;DHT22;28407;51.830;5.684;2023-12-20T01:37:08;8.10;92.20
42755;DHT22;28407;51.830;5.684;2023-12-20T01:39:09;8.10;92.20
42755;DHT22;28407;51.830;5.684;2023-12-20T01:41:10;8.10;92.20
42755;DHT22;28407;51.830;5.684;2023-12-20T01:43:10;8.00;92.20
42755;DHT22;28407;51.830;5.684;2023-12-20T01:45:12;8.10;92.20
42755;DHT22;28407;51.830;5.684;2023-12-20T01:47:13;8.00;92.20
42755;DHT22;28407;51.830;5.684;2023-12-20T01:49:14;8.00;92.20
42755;DHT22;28407;51.830;5.684;2023-12-20T01:51:15;8.00;92.20
42755;DHT22;28407;51.830;5.684;2023-12-20T01:53:15;8.10;92.20
42755;DHT22;28407;51.830;5.684;2023-12-20T01:55:17;8.00;92.10
42755;DHT22;28407;51.830;5.684;2023-12-20T01:57:18;8.00;92.10
42755;DHT22;28407;51.830;5.684;2023-12-20T01:59:19;8.00;92.10
42755;DHT22;28407;51.830;5.684;2023-12-20T02:01:20;8.00;92.10
42755;DHT22;28407;51.830;5.684;2023-12-20T02:03:23;8.00;92.20
42755;DHT22;28407;51.830;5.684;2023-12-20T02:05:28;8.00;92.20
42755;DHT22;28407;51.830;5.684;2023-12-20T02:07:29;8.00;92.10
42755;DHT22;28407;51.830;5.684;2023-12-20T02:09:31;8.00;92.10
42755;DHT22;28407;51.830;5.684;2023-12-20T02:11:32;8.00;92.10
42755;DHT22;28407;51.830;5.684;2023-12-20T02:13:33;8.00;92.10
42755;DHT22;28407;51.830;5.684;2023-12-20T02:15:34;8.00;92.10
42755;DHT22;28407;51.830;5.684;2023-12-20T02:17:37;8.00;92.00
42755;DHT22;28407;51.830;5.684;2023-12-20T02:19:38;8.00;92.00
42755;DHT22;28407;51.830;5.684;2023-12-20T02:21:39;8.00;92.00
42755;DHT22;28407;51.830;5.684;2023-12-20T02:23:39;8.00;92.00
42755;DHT22;28407;51.830;5.684;2023-12-20T02:25:40;8.00;92.00
42755;DHT22;28407;51.830;5.684;2023-12-20T02:27:40;8.00;92.00
42755;DHT22;28407;51.830;5.684;2023-12-20T02:29:42;8.00;92.00
42755;DHT22;28407;51.830;5.684;2023-12-20T02:31:42;8.00;92.00
42755;DHT22;28407;51.830;5.684;2023-12-20T02:33:45;8.00;92.00
42755;DHT22;28407;51.830;5.684;2023-12-20T02:35:46;8.00;92.00
42755;DHT22;28407;51.830;5.684;2023-12-20T02:37:47;8.00;92.00
42755;DHT22;28407;51.830;5.684;2023-12-20T02:39:48;8.00;92.00
42755;DHT22;28407;51.830;5.684;2023-12-20T02:41:49;8.00;92.00
42755;DHT22;28407;51.830;5.684;2023-12-20T02:43:49;8.00;92.00
42755;DHT22;28407;51.830;5.684;2023-12-20T02:45:50;8.00;92.00
42755;DHT22;28407;51.830;5.684;2023-12-20T02:47:50;8.00;91.90
42755;DHT22;28407;51.830;5.684;2023-12-20T02:49:51;8.00;92.00
42755;DHT22;28407;51.830;5.684;2023-12-20T02:51:53;7.90;91.90
42755;DHT22;28407;51.830;5.684;2023-12-20T02:53:56;7.90;92.00
42755;DHT22;28407;51.830;5.684;2023-12-20T02:55:57;8.00;91.90
42755;DHT22;28407;51.830;5.684;2023-12-20T02:57:57;8.00;92.00
42755;DHT22;28407;51.830;5.684;2023-12-20T02:59:58;7.90;91.90
42755;DHT22;28407;51.830;5.684;2023-12-20T03:01:58;8.00;91.90
42755;DHT22;28407;51.830;5.684;2023-12-20T03:03:59;7.90;91.90
42755;DHT22;28407;51.830;5.684;2023-12-20T03:06:00;7.90;91.90
42755;DHT22;28407;51.830;5.684;2023-12-20T03:08:00;8.00;91.90
42755;DHT22;28407;51.830;5.684;2023-12-20T03:10:01;7.90;91.90
42755;DHT22;28407;51.830;5.684;2023-12-20T03:12:01;8.00;91.90
42755;DHT22;28407;51.830;5.684;2023-12-20T03:14:02;8.00;91.90
42755;DHT22;28407;51.830;5.684;2023-12-20T03:16:12;8.00;91.90
42755;DHT22;28407;51.830;5.684;2023-12-20T03:18:12;7.90;91.80
42755;DHT22;28407;51.830;5.684;2023-12-20T03:20:13;8.00;91.90
42755;DHT22;28407;51.830;5.684;2023-12-20T03:22:14;7.90;91.80
42755;DHT22;28407;51.830;5.684;2023-12-20T03:24:14;7.90;91.80
42755;DHT22;28407;51.830;5.684;2023-12-20T03:26:15;7.90;91.90
42755;DHT22;28407;51.830;5.684;2023-12-20T03:28:15;7.90;91.90
42755;DHT22;28407;51.830;5.684;2023-12-20T03:30:16;7.90;91.80
42755;DHT22;28407;51.830;5.684;2023-12-20T03:32:17;7.90;91.90
42755;DHT22;28407;51.830;5.684;2023-12-20T03:34:17;7.90;91.90
42755;DHT22;28407;51.830;5.684;2023-12-20T03:36:18;7.90;91.80
42755;DHT22;28407;51.830;5.684;2023-12-20T03:38:18;7.90;91.90
42755;DHT22;28407;51.830;5.684;2023-12-20T03:40:19;7.90;91.90
42755;DHT22;28407;51.830;5.684;2023-12-20T03:42:20;7.90;91.80
42755;DHT22;28407;51.830;5.684;2023-12-20T03:44:20;7.90;91.90
42755;DHT22;28407;51.830;5.684;2023-12-20T03:46:24;7.90;91.90
42755;DHT22;28407;51.830;5.684;2023-12-20T03:48:24;7.90;91.90
42755;DHT22;28407;51.830;5.684;2023-12-20T03:50:25;7.90;91.90
42755;DHT22;28407;51.830;5.684;2023-12-20T03:52:26;7.90;91.80
42755;DHT22;28407;51.830;5.684;2023-12-20T03:54:26;7.80;91.80
42755;DHT22;28407;51.830;5.684;2023-12-20T03:56:27;7.90;91.80
42755;DHT22;28407;51.830;5.684;2023-12-20T03:58:27;7.90;91.80
42755;DHT22;28407;51.830;5.684;2023-12-20T04:00:28;7.90;91.80
42755;DHT22;28407;51.830;5.684;2023-12-20T04:02:28;7.80;91.80
42755;DHT22;28407;51.830;5.684;2023-12-20T04:04:29;7.90;91.80
42755;DHT22;28407;51.830;5.684;2023-12-20T04:06:30;7.90;91.80
42755;DHT22;28407;51.830;5.684;2023-12-20T04:08:30;7.90;91.80
42755;DHT22;28407;51.830;5.684;2023-12-20T04:10:31;7.90;91.80
42755;DHT22;28407;51.830;5.684;2023-12-20T04:12:32;7.90;91.80
42755;DHT22;28407;51.830;5.684;2023-12-20T04:14:33;7.90;91.80
42755;DHT22;28407;51.830;5.684;2023-12-20T04:16:34;7.90;91.80
42755;DHT22;28407;51.830;5.684;2023-12-20T04:18:35;7.90;91.70
42755;DHT22;28407;51.830;5.684;2023-12-20T04:20:36;7.90;91.70
42755;DHT22;28407;51.830;5.684;2023-12-20T04:22:37;7.90;91.70
42755;DHT22;28407;51.830;5.684;2023-12-20T04:24:37;7.90;91.70
42755;DHT22;28407;51.830;5.684;2023-12-20T04:26:38;7.90;91.70
42755;DHT22;28407;51.830;5.684;2023-12-20T04:28:38;7.90;91.70
42755;DHT22;28407;51.830;5.684;2023-12-20T04:30:39;7.90;91.70
42755;DHT22;28407;51.830;5.684;2023-12-20T04:32:40;7.90;91.70
42755;DHT22;28407;51.830;5.684;2023-12-20T04:34:40;7.90;91.70
42755;DHT22;28407;51.830;5.684;2023-12-20T04:36:41;7.90;91.70
42755;DHT22;28407;51.830;5.684;2023-12-20T04:38:42;7.90;91.70
42755;DHT22;28407;51.830;5.684;2023-12-20T04:40:43;7.90;91.70
42755;DHT22;28407;51.830;5.684;2023-12-20T04:42:43;7.90;91.70
42755;DHT22;28407;51.830;5.684;2023-12-20T04:44:44;7.90;91.70
42755;DHT22;28407;51.830;5.684;2023-12-20T04:46:44;7.90;91.70
42755;DHT22;28407;51.830;5.684;2023-12-20T04:48:45;7.90;91.70
42755;DHT22;28407;51.830;5.684;2023-12-20T04:50:46;7.90;91.70
42755;DHT22;28407;51.830;5.684;2023-12-20T04:52:46;7.90;91.70
42755;DHT22;28407;51.830;5.684;2023-12-20T04:54:47;8.00;91.70
42755;DHT22;28407;51.830;5.684;2023-12-20T04:56:49;8.00;91.70
42755;DHT22;28407;51.830;5.684;2023-12-20T04:58:49;7.90;91.60
42755;DHT22;28407;51.830;5.684;2023-12-20T05:00:50;8.00;91.60
42755;DHT22;28407;51.830;5.684;2023-12-20T05:02:59;8.00;91.60
42755;DHT22;28407;51.830;5.684;2023-12-20T05:05:00;8.00;91.60
42755;DHT22;28407;51.830;5.684;2023-12-20T05:07:00;8.00;91.60
42755;DHT22;28407;51.830;5.684;2023-12-20T05:09:01;8.00;91.60
42755;DHT22;28407;51.830;5.684;2023-12-20T05:11:02;8.00;91.60
42755;DHT22;28407;51.830;5.684;2023-12-20T05:13:03;8.00;91.60
42755;DHT22;28407;51.830;5.684;2023-12-20T05:15:05;8.00;91.60
42755;DHT22;28407;51.830;5.684;2023-12-20T05:17:06;8.00;91.60
42755;DHT22;28407;51.830;5.684;2023-12-20T05:19:06;8.00;91.60
42755;DHT22;28407;51.830;5.684;2023-12-20T05:21:07;8.00;91.60
42755;DHT22;28407;51.830;5.684;2023-12-20T05:23:10;8.00;91.60
42755;DHT22;28407;51.830;5.684;2023-12-20T05:25:12;8.00;91.50
42755;DHT22;28407;51.830;5.684;2023-12-20T05:27:12;8.00;91.50
42755;DHT22;28407;51.830;5.684;2023-12-20T05:29:13;8.00;91.50
42755;DHT22;28407;51.830;5.684;2023-12-20T05:31:13;8.10;91.50
42755;DHT22;28407;51.830;5.684;2023-12-20T05:33:14;8.10;91.50
42755;DHT22;28407;51.830;5.684;2023-12-20T05:35:14;8.10;91.50
42755;DHT22;28407;51.830;5.684;2023-12-20T05:37:15;8.10;91.50
42755;DHT22;28407;51.830;5.684;2023-12-20T05:39:18;8.10;91.50
42755;DHT22;28407;51.830;5.684;2023-12-20T05:41:19;8.10;91.50
42755;DHT22;28407;51.830;5.684;2023-12-20T05:43:19;8.10;91.50
42755;DHT22;28407;51.830;5.684;2023-12-20T05:45:20;8.10;91.50
42755;DHT22;28407;51.830;5.684;2023-12-20T05:47:21;8.10;91.50
42755;DHT22;28407;51.830;5.684;2023-12-20T05:49:27;8.10;91.50
42755;DHT22;28407;51.830;5.684;2023-12-20T05:51:28;8.10;91.50
42755;DHT22;28407;51.830;5.684;2023-12-20T05:53:28;8.10;91.50
42755;DHT22;28407;51.830;5.684;2023-12-20T05:55:29;8.10;91.50
42755;DHT22;28407;51.830;5.684;2023-12-20T05:57:29;8.10;91.40
42755;DHT22;28407;51.830;5.684;2023-12-20T05:59:30;8.10;91.50
42755;DHT22;28407;51.830;5.684;2023-12-20T06:01:30;8.10;91.40
42755;DHT22;28407;51.830;5.684;2023-12-20T06:03:31;8.20;91.50
42755;DHT22;28407;51.830;5.684;2023-12-20T06:05:32;8.10;91.40
42755;DHT22;28407;51.830;5.684;2023-12-20T06:07:32;8.10;91.40
42755;DHT22;28407;51.830;5.684;2023-12-20T06:09:35;8.10;91.40
42755;DHT22;28407;51.830;5.684;2023-12-20T06:11:37;8.20;91.40
42755;DHT22;28407;51.830;5.684;2023-12-20T06:13:38;8.10;91.40
42755;DHT22;28407;51.830;5.684;2023-12-20T06:15:41;8.10;91.40
42755;DHT22;28407;51.830;5.684;2023-12-20T06:17:42;8.20;91.40
42755;DHT22;28407;51.830;5.684;2023-12-20T06:19:45;8.10;91.40
42755;DHT22;28407;51.830;5.684;2023-12-20T06:21:51;8.10;91.40
42755;DHT22;28407;51.830;5.684;2023-12-20T06:23:58;8.20;91.40
42755;DHT22;28407;51.830;5.684;2023-12-20T06:25:59;8.10;91.40
42755;DHT22;28407;51.830;5.684;2023-12-20T06:27:59;8.10;91.40
42755;DHT22;28407;51.830;5.684;2023-12-20T06:30:00;8.20;91.40
42755;DHT22;28407;51.830;5.684;2023-12-20T06:32:01;8.20;91.40
42755;DHT22;28407;51.830;5.684;2023-12-20T06:34:01;8.10;91.40
42755;DHT22;28407;51.830;5.684;2023-12-20T06:36:02;8.10;91.40
42755;DHT22;28407;51.830;5.684;2023-12-20T06:38:03;8.10;91.40
42755;DHT22;28407;51.830;5.684;2023-12-20T06:40:04;8.10;91.40
42755;DHT22;28407;51.830;5.684;2023-12-20T06:42:04;8.10;91.40
42755;DHT22;28407;51.830;5.684;2023-12-20T06:44:05;8.10;91.40
42755;DHT22;28407;51.830;5.684;2023-12-20T06:46:08;8.20;91.40
42755;DHT22;28407;51.830;5.684;2023-12-20T06:48:09;8.20;91.40
42755;DHT22;28407;51.830;5.684;2023-12-20T06:50:11;8.20;91.40
42755;DHT22;28407;51.830;5.684;2023-12-20T06:52:12;8.10;91.30
42755;DHT22;28407;51.830;5.684;2023-12-20T06:54:12;8.20;91.40
42755;DHT22;28407;51.830;5.684;2023-12-20T06:56:13;8.10;91.30
42755;DHT22;28407;51.830;5.684;2023-12-20T06:58:13;8.10;91.30
42755;DHT22;28407;51.830;5.684;2023-12-20T07:00:14;8.10;91.30
42755;DHT22;28407;51.830;5.684;2023-12-20T07:02:15;8.20;91.40
42755;DHT22;28407;51.830;5.684;2023-12-20T07:04:16;8.10;91.30
42755;DHT22;28407;51.830;5.684;2023-12-20T07:06:20;8.20;91.30
42755;DHT22;28407;51.830;5.684;2023-12-20T07:08:21;8.20;91.30
42755;DHT22;28407;51.830;5.684;2023-12-20T07:10:21;8.20;91.30
42755;DHT22;28407;51.830;5.684;2023-12-20T07:12:22;8.10;91.30
42755;DHT22;28407;51.830;5.684;2023-12-20T07:14:22;8.20;91.30
42755;DHT22;28407;51.830;5.684;2023-12-20T07:16:23;8.20;91.30
42755;DHT22;28407;51.830;5.684;2023-12-20T07:18:23;8.20;91.30
42755;DHT22;28407;51.830;5.684;2023-12-20T07:20:24;8.20;91.30
42755;DHT22;28407;51.830;5.684;2023-12-20T07:22:25;8.10;91.20
42755;DHT22;28407;51.830;5.684;2023-12-20T07:24:25;8.10;91.20
42755;DHT22;28407;51.830;5.684;2023-12-20T07:26:26;8.20;91.30
42755;DHT22;28407;51.830;5.684;2023-12-20T07:28:26;8.20;91.30
42755;DHT22;28407;51.830;5.684;2023-12-20T07:30:27;8.20;91.30
42755;DHT22;28407;51.830;5.684;2023-12-20T07:32:28;8.20;91.30
42755;DHT22;28407;51.830;5.684;2023-12-20T07:34:29;8.20;91.30
42755;DHT22;28407;51.830;5.684;2023-12-20T07:36:29;8.20;91.30
42755;DHT22;28407;51.830;5.684;2023-12-20T07:38:30;8.20;91.20
42755;DHT22;28407;51.830;5.684;2023-12-20T07:40:30;8.20;91.20
42755;DHT22;28407;51.830;5.684;2023-12-20T07:42:31;8.20;91.20
42755;DHT22;28407;51.830;5.684;2023-12-20T07:44:32;8.20;91.20
42755;DHT22;28407;51.830;5.684;2023-12-20T07:46:32;8.20;91.20
42755;DHT22;28407;51.830;5.684;2023-12-20T07:48:36;8.20;91.20
42755;DHT22;28407;51.830;5.684;2023-12-20T07:50:36;8.20;91.20
42755;DHT22;28407;51.830;5.684;2023-12-20T07:52:37;8.20;91.20
42755;DHT22;28407;51.830;5.684;2023-12-20T07:54:38;8.20;91.20
42755;DHT22;28407;51.830;5.684;2023-12-20T07:56:38;8.20;91.20
42755;DHT22;28407;51.830;5.684;2023-12-20T07:58:40;8.20;91.20
42755;DHT22;28407;51.830;5.684;2023-12-20T08:00:44;8.20;91.20
42755;DHT22;28407;51.830;5.684;2023-12-20T08:02:44;8.20;91.20
42755;DHT22;28407;51.830;5.684;2023-12-20T08:04:45;8.20;91.20
42755;DHT22;28407;51.830;5.684;2023-12-20T08:06:46;8.20;91.10
42755;DHT22;28407;51.830;5.684;2023-12-20T08:08:46;8.20;91.10
42755;DHT22;28407;51.830;5.684;2023-12-20T08:10:47;8.20;91.10
42755;DHT22;28407;51.830;5.684;2023-12-20T08:12:47;8.20;91.10
42755;DHT22;28407;51.830;5.684;2023-12-20T08:14:48;8.30;91.20
42755;DHT22;28407;51.830;5.684;2023-12-20T08:16:49;8.20;91.10
42755;DHT22;28407;51.830;5.684;2023-12-20T08:18:52;8.30;91.10
42755;DHT22;28407;51.830;5.684;2023-12-20T08:20:52;8.30;91.10
42755;DHT22;28407;51.830;5.684;2023-12-20T08:22:54;8.30;91.10
42755;DHT22;28407;51.830;5.684;2023-12-20T08:24:54;8.30;91.10
42755;DHT22;28407;51.830;5.684;2023-12-20T08:26:55;8.30;91.10
42755;DHT22;28407;51.830;5.684;2023-12-20T08:28:56;8.30;91.10
42755;DHT22;28407;51.830;5.684;2023-12-20T08:30:56;8.20;91.10
42755;DHT22;28407;51.830;5.684;2023-12-20T08:32:59;8.30;91.10
42755;DHT22;28407;51.830;5.684;2023-12-20T08:34:59;8.30;91.10
42755;DHT22;28407;51.830;5.684;2023-12-20T08:37:00;8.30;91.10
42755;DHT22;28407;51.830;5.684;2023-12-20T08:39:01;8.30;91.10
42755;DHT22;28407;51.830;5.684;2023-12-20T08:41:03;8.30;91.10
42755;DHT22;28407;51.830;5.684;2023-12-20T08:43:07;8.20;91.10
42755;DHT22;28407;51.830;5.684;2023-12-20T08:45:08;8.20;91.10
42755;DHT22;28407;51.830;5.684;2023-12-20T08:47:08;8.20;91.10
42755;DHT22;28407;51.830;5.684;2023-12-20T08:49:13;8.20;91.10
42755;DHT22;28407;51.830;5.684;2023-12-20T08:51:14;8.20;91.10
42755;DHT22;28407;51.830;5.684;2023-12-20T08:53:15;8.30;91.10
42755;DHT22;28407;51.830;5.684;2023-12-20T08:55:16;8.20;91.10
42755;DHT22;28407;51.830;5.684;2023-12-20T08:57:21;8.20;91.10
42755;DHT22;28407;51.830;5.684;2023-12-20T08:59:23;8.20;91.10
42755;DHT22;28407;51.830;5.684;2023-12-20T09:01:24;8.30;91.10
42755;DHT22;28407;51.830;5.684;2023-12-20T09:03:25;8.30;91.10
42755;DHT22;28407;51.830;5.684;2023-12-20T09:08:03;8.30;90.90
42755;DHT22;28407;51.830;5.684;2023-12-20T09:10:04;8.30;90.80
42755;DHT22;28407;51.830;5.684;2023-12-20T09:12:05;8.30;90.90
42755;DHT22;28407;51.830;5.684;2023-12-20T09:14:06;8.30;90.90
42755;DHT22;28407;51.830;5.684;2023-12-20T09:16:07;8.30;90.90
42755;DHT22;28407;51.830;5.684;2023-12-20T09:18:08;8.30;90.90
42755;DHT22;28407;51.830;5.684;2023-12-20T09:20:09;8.30;90.90
42755;DHT22;28407;51.830;5.684;2023-12-20T09:22:10;8.30;90.80
42755;DHT22;28407;51.830;5.684;2023-12-20T09:24:10;8.40;90.80
42755;DHT22;28407;51.830;5.684;2023-12-20T09:26:11;8.30;90.80
42755;DHT22;28407;51.830;5.684;2023-12-20T09:28:12;8.30;90.80
42755;DHT22;28407;51.830;5.684;2023-12-20T09:30:13;8.40;90.80
42755;DHT22;28407;51.830;5.684;2023-12-20T09:32:16;8.40;90.80
42755;DHT22;28407;51.830;5.684;2023-12-20T09:34:17;8.30;90.70
42755;DHT22;28407;51.830;5.684;2023-12-20T09:36:18;8.30;90.70
42755;DHT22;28407;51.830;5.684;2023-12-20T09:38:19;8.30;90.70
42755;DHT22;28407;51.830;5.684;2023-12-20T09:40:20;8.30;90.70
42755;DHT22;28407;51.830;5.684;2023-12-20T09:44:41;8.30;90.80
42755;DHT22;28407;51.830;5.684;2023-12-20T09:46:44;8.40;90.80
42755;DHT22;28407;51.830;5.684;2023-12-20T09:48:45;8.40;90.80
42755;DHT22;28407;51.830;5.684;2023-12-20T09:50:46;8.40;90.80
42755;DHT22;28407;51.830;5.684;2023-12-20T09:52:52;8.40;90.70
42755;DHT22;28407;51.830;5.684;2023-12-20T09:54:53;8.40;90.80
42755;DHT22;28407;51.830;5.684;2023-12-20T09:56:55;8.40;90.70
42755;DHT22;28407;51.830;5.684;2023-12-20T09:58:56;8.40;90.70
42755;DHT22;28407;51.830;5.684;2023-12-20T10:00:57;8.40;90.70
42755;DHT22;28407;51.830;5.684;2023-12-20T10:02:59;8.40;90.70
42755;DHT22;28407;51.830;5.684;2023-12-20T10:04:59;8.40;90.70
42755;DHT22;28407;51.830;5.684;2023-12-20T10:07:04;8.40;90.70
42755;DHT22;28407;51.830;5.684;2023-12-20T10:09:04;8.40;90.70
42755;DHT22;28407;51.830;5.684;2023-12-20T10:11:06;8.40;90.70
42755;DHT22;28407;51.830;5.684;2023-12-20T10:13:10;8.40;90.70
42755;DHT22;28407;51.830;5.684;2023-12-20T10:15:11;8.40;90.70
42755;DHT22;28407;51.830;5.684;2023-12-20T10:17:12;8.40;90.70
42755;DHT22;28407;51.830;5.684;2023-12-20T10:19:16;8.40;90.70
42755;DHT22;28407;51.830;5.684;2023-12-20T10:21:17;8.40;90.70
42755;DHT22;28407;51.830;5.684;2023-12-20T10:23:18;8.40;90.70
42755;DHT22;28407;51.830;5.684;2023-12-20T10:25:21;8.40;90.70
42755;DHT22;28407;51.830;5.684;2023-12-20T10:27:21;8.40;90.70
42755;DHT22;28407;51.830;5.684;2023-12-20T10:29:23;8.40;90.70
42755;DHT22;28407;51.830;5.684;2023-12-20T10:31:32;8.40;90.70
42755;DHT22;28407;51.830;5.684;2023-12-20T10:33:35;8.40;90.70
42755;DHT22;28407;51.830;5.684;2023-12-20T10:35:37;8.50;91.00
42755;DHT22;28407;51.830;5.684;2023-12-20T10:37:38;8.50;90.70
42755;DHT22;28407;51.830;5.684;2023-12-20T10:39:39;8.50;90.70
42755;DHT22;28407;51.830;5.684;2023-12-20T10:41:42;8.50;90.70
42755;DHT22;28407;51.830;5.684;2023-12-20T10:43:44;8.50;90.70
42755;DHT22;28407;51.830;5.684;2023-12-20T10:45:45;8.50;90.70
42755;DHT22;28407;51.830;5.684;2023-12-20T10:47:47;8.50;90.70
42755;DHT22;28407;51.830;5.684;2023-12-20T10:49:50;8.50;90.70
42755;DHT22;28407;51.830;5.684;2023-12-20T10:51:54;8.50;90.70
42755;DHT22;28407;51.830;5.684;2023-12-20T10:53:55;8.50;90.70
42755;DHT22;28407;51.830;5.684;2023-12-20T10:55:59;8.60;90.80
42755;DHT22;28407;51.830;5.684;2023-12-20T10:58:07;8.50;90.70
42755;DHT22;28407;51.830;5.684;2023-12-20T11:00:11;8.50;90.70
42755;DHT22;28407;51.830;5.684;2023-12-20T11:02:13;8.60;90.80
42755;DHT22;28407;51.830;5.684;2023-12-20T11:04:31;8.60;90.70
42755;DHT22;28407;51.830;5.684;2023-12-20T11:06:47;8.60;90.80
42755;DHT22;28407;51.830;5.684;2023-12-20T11:09:23;8.60;90.70
42755;DHT22;28407;51.830;5.684;2023-12-20T11:14:03;8.60;90.70
42755;DHT22;28407;51.830;5.684;2023-12-20T11:16:06;8.60;90.70
42755;DHT22;28407;51.830;5.684;2023-12-20T11:18:09;8.60;90.70
42755;DHT22;28407;51.830;5.684;2023-12-20T11:20:10;8.60;90.70
42755;DHT22;28407;51.830;5.684;2023-12-20T11:22:12;8.60;90.70
42755;DHT22;28407;51.830;5.684;2023-12-20T11:24:12;8.70;90.70
42755;DHT22;28407;51.830;5.684;2023-12-20T11:26:15;8.70;90.70
42755;DHT22;28407;51.830;5.684;2023-12-20T11:28:21;8.70;90.70
42755;DHT22;28407;51.830;5.684;2023-12-20T11:30:22;8.70;90.70
42755;DHT22;28407;51.830;5.684;2023-12-20T11:34:29;8.70;90.70
42755;DHT22;28407;51.830;5.684;2023-12-20T11:36:32;8.70;90.70
42755;DHT22;28407;51.830;5.684;2023-12-20T11:38:47;8.80;90.70
42755;DHT22;28407;51.830;5.684;2023-12-20T11:40:49;8.80;90.70
42755;DHT22;28407;51.830;5.684;2023-12-20T11:42:51;8.80;90.70
42755;DHT22;28407;51.830;5.684;2023-12-20T11:44:53;8.80;90.70
42755;DHT22;28407;51.830;5.684;2023-12-20T11:46:55;8.80;90.70
42755;DHT22;28407;51.830;5.684;2023-12-20T11:48:56;8.90;90.70
42755;DHT22;28407;51.830;5.684;2023-12-20T11:50:56;8.80;90.70
42755;DHT22;28407;51.830;5.684;2023-12-20T11:52:57;8.80;90.60
42755;DHT22;28407;51.830;5.684;2023-12-20T11:54:58;8.80;90.60
42755;DHT22;28407;51.830;5.684;2023-12-20T11:56:58;8.80;90.70
42755;DHT22;28407;51.830;5.684;2023-12-20T11:58:59;8.80;90.70
42755;DHT22;28407;51.830;5.684;2023-12-20T12:01:00;8.90;91.00
42755;DHT22;28407;51.830;5.684;2023-12-20T12:03:05;8.90;90.70
42755;DHT22;28407;51.830;5.684;2023-12-20T12:05:06;8.90;90.70
42755;DHT22;28407;51.830;5.684;2023-12-20T12:07:07;8.90;90.70
42755;DHT22;28407;51.830;5.684;2023-12-20T12:09:08;8.90;90.70
42755;DHT22;28407;51.830;5.684;2023-12-20T12:11:08;8.90;90.70
42755;DHT22;28407;51.830;5.684;2023-12-20T12:13:09;8.90;91.00
42755;DHT22;28407;51.830;5.684;2023-12-20T12:15:10;8.90;90.70
42755;DHT22;28407;51.830;5.684;2023-12-20T12:17:14;8.90;90.70
42755;DHT22;28407;51.830;5.684;2023-12-20T12:19:25;8.90;90.70
42755;DHT22;28407;51.830;5.684;2023-12-20T12:21:26;8.90;90.70
42755;DHT22;28407;51.830;5.684;2023-12-20T12:23:27;9.00;90.70
42755;DHT22;28407;51.830;5.684;2023-12-20T12:25:32;8.90;90.70
42755;DHT22;28407;51.830;5.684;2023-12-20T12:27:35;9.00;90.70
42755;DHT22;28407;51.830;5.684;2023-12-20T12:29:36;9.00;90.70
42755;DHT22;28407;51.830;5.684;2023-12-20T12:31:37;9.00;90.70
42755;DHT22;28407;51.830;5.684;2023-12-20T12:33:38;9.00;90.70
42755;DHT22;28407;51.830;5.684;2023-12-20T12:35:38;9.00;90.70
42755;DHT22;28407;51.830;5.684;2023-12-20T12:37:41;9.00;90.70
42755;DHT22;28407;51.830;5.684;2023-12-20T12:39:41;9.10;90.80
42755;DHT22;28407;51.830;5.684;2023-12-20T12:41:42;9.00;90.70
42755;DHT22;28407;51.830;5.684;2023-12-20T12:43:43;9.10;90.70
42755;DHT22;28407;51.830;5.684;2023-12-20T12:45:44;9.10;90.70
42755;DHT22;28407;51.830;5.684;2023-12-20T12:47:45;9.10;90.70
42755;DHT22;28407;51.830;5.684;2023-12-20T12:49:45;9.10;90.70
42755;DHT22;28407;51.830;5.684;2023-12-20T12:51:46;9.10;90.70
42755;DHT22;28407;51.830;5.684;2023-12-20T12:53:47;9.10;90.70
42755;DHT22;28407;51.830;5.684;2023-12-20T12:55:48;9.10;90.70
42755;DHT22;28407;51.830;5.684;2023-12-20T12:57:48;9.20;90.70
42755;DHT22;28407;51.830;5.684;2023-12-20T12:59:50;9.20;90.70
42755;DHT22;28407;51.830;5.684;2023-12-20T13:01:50;9.20;90.70
42755;DHT22;28407;51.830;5.684;2023-12-20T13:03:51;9.20;90.70
42755;DHT22;28407;51.830;5.684;2023-12-20T13:05:52;9.10;90.70
42755;DHT22;28407;51.830;5.684;2023-12-20T13:07:52;9.20;90.70